TimeMDT,TemperatureF,Dew PointF,Humidity,Sea Level PressureIn,VisibilityMPH,Wind Direction,Wind SpeedMPH,Gust SpeedMPH,PrecipitationIn,Events,Conditions,WindDirDegrees,DateUTC
12:53 AM,66.0,27.0,23,29.80,10.0,Calm,Calm,-,N/A,,Clear,0,2013-07-22 06:53:00
1:53 AM,66.0,32.0,28,29.81,10.0,West,3.5,-,N/A,,Clear,270,2013-07-22 07:53:00
2:53 AM,59.0,33.1,38,29.85,10.0,ESE,5.8,-,N/A,,Clear,110,2013-07-22 08:53:00
3:53 AM,57.0,36.0,45,29.87,10.0,ESE,4.6,-,N/A,,Clear,110,2013-07-22 09:53:00
4:53 AM,54.0,37.0,53,29.90,10.0,Calm,Calm,-,N/A,,Clear,0,2013-07-22 10:53:00
5:53 AM,48.0,34.0,58,29.93,10.0,SE,3.5,-,N/A,,Clear,130,2013-07-22 11:53:00
6:53 AM,53.1,36.0,52,29.94,10.0,Calm,Calm,-,N/A,,Clear,0,2013-07-22 12:53:00
7:53 AM,57.0,37.0,47,29.97,10.0,Calm,Calm,-,N/A,,Clear,0,2013-07-22 13:53:00
8:53 AM,66.9,37.0,33,29.92,10.0,Calm,Calm,-,N/A,,Clear,0,2013-07-22 14:53:00
10:53 AM,82.0,26.1,13,29.89,10.0,North,4.6,-,N/A,,Clear,350,2013-07-22 16:53:00
11:53 AM,89.1,21.0,8,29.87,10.0,NW,4.6,-,N/A,,Unknown,310,2013-07-22 17:53:00
12:53 PM,91.9,16.0,6,29.86,10.0,West,15.0,20.7,N/A,,Clear,280,2013-07-22 18:53:00
1:53 PM,93.0,16.0,6,29.85,10.0,NNW,6.9,23.0,N/A,,Clear,340,2013-07-22 19:53:00
2:53 PM,95.0,17.1,6,29.84,10.0,WNW,8.1,18.4,N/A,,Clear,290,2013-07-22 20:53:00
3:53 PM,95.0,14.0,5,29.82,10.0,West,12.7,19.6,N/A,,Clear,280,2013-07-22 21:53:00
4:53 PM,95.0,16.0,6,29.81,10.0,NW,11.5,21.9,N/A,,Clear,310,2013-07-22 22:53:00
5:53 PM,93.0,16.0,6,29.83,10.0,West,16.1,-,N/A,,Clear,280,2013-07-22 23:53:00
6:53 PM,91.9,17.1,6,29.81,10.0,NW,10.4,-,N/A,,Clear,320,2013-07-23 00:53:00
7:53 PM,86.0,19.0,8,29.82,10.0,NW,4.6,-,N/A,,Clear,310,2013-07-23 01:53:00
8:53 PM,75.0,21.9,14,29.84,10.0,Calm,Calm,-,N/A,,Clear,0,2013-07-23 02:53:00
9:53 PM,66.0,27.0,23,30.11,10.0,SSE,4.6,-,N/A,,Clear,150,2013-07-23 03:53:00
10:53 PM,61.0,30.9,32,29.89,10.0,Calm,Calm,-,N/A,,Clear,0,2013-07-23 04:53:00
11:53 PM,57.9,28.9,33,29.90,10.0,ESE,3.5,-,N/A,,Clear,110,2013-07-23 05:53:00